createdAt,value
2024-01-20T00:00:13.557Z,88.40
2024-01-20T00:02:40.389Z,88.40
2024-01-20T00:05:07.331Z,88.20
2024-01-20T00:07:34.559Z,88.20
2024-01-20T00:10:01.413Z,87.90
2024-01-20T00:12:28.087Z,88.10
2024-01-20T00:14:54.877Z,88.10
2024-01-20T00:17:25.780Z,88.10
2024-01-20T00:19:55.449Z,88.30
2024-01-20T00:22:23.917Z,88.10
2024-01-20T00:24:51.157Z,88.20
2024-01-20T00:27:22.737Z,88.20
2024-01-20T00:29:50.133Z,88.20
2024-01-20T00:32:17.058Z,88.00
2024-01-20T00:34:55.445Z,88.00
2024-01-20T00:37:30.927Z,88.20
2024-01-20T00:39:58.207Z,87.80
2024-01-20T00:42:25.034Z,88.00
2024-01-20T00:44:52.763Z,88.00
2024-01-20T00:47:19.597Z,88.10
2024-01-20T00:49:46.613Z,87.90
2024-01-20T00:52:13.312Z,88.00
2024-01-20T00:54:40.066Z,87.90
2024-01-20T00:57:09.507Z,87.80
2024-01-20T00:59:36.418Z,88.20
2024-01-20T01:02:03.427Z,88.10
2024-01-20T01:04:30.174Z,88.10
2024-01-20T01:06:57.005Z,87.90
2024-01-20T01:09:24.689Z,88.10
2024-01-20T01:11:51.457Z,87.80
2024-01-20T01:14:18.268Z,87.90
2024-01-20T01:16:45.226Z,87.80
2024-01-20T01:19:12.002Z,87.80
2024-01-20T01:21:38.802Z,87.80
2024-01-20T01:24:05.917Z,87.60
2024-01-20T01:26:33.712Z,87.60
2024-01-20T01:29:00.745Z,87.60
2024-01-20T01:31:27.584Z,87.60
2024-01-20T01:33:54.562Z,87.60
2024-01-20T01:36:21.223Z,87.50
2024-01-20T01:38:47.894Z,87.80
2024-01-20T01:41:14.842Z,88.10
2024-01-20T01:43:41.608Z,87.80
2024-01-20T01:46:10.568Z,88.20
2024-01-20T01:48:37.883Z,87.90
2024-01-20T01:51:05.501Z,88.10
2024-01-20T01:53:34.861Z,87.70
2024-01-20T01:56:02.158Z,87.90
2024-01-20T01:58:29.053Z,87.80
2024-01-20T02:00:55.996Z,88.20
2024-01-20T02:03:23.204Z,88.70
2024-01-20T02:05:50.220Z,88.60
2024-01-20T02:08:17.011Z,88.70
2024-01-20T02:10:44.251Z,88.20
2024-01-20T02:13:11.532Z,88.10
2024-01-20T02:15:38.556Z,87.80
2024-01-20T02:18:05.368Z,87.70
2024-01-20T02:20:32.279Z,87.90
2024-01-20T02:22:59.168Z,87.70
2024-01-20T02:25:25.831Z,87.70
2024-01-20T02:27:52.669Z,87.40
2024-01-20T02:30:19.409Z,87.40
2024-01-20T02:32:46.402Z,87.30
2024-01-20T02:35:13.672Z,87.40
2024-01-20T02:37:41.549Z,87.20
2024-01-20T02:40:08.726Z,87.40
2024-01-20T02:42:35.338Z,87.20
2024-01-20T02:45:02.306Z,87.00
2024-01-20T02:47:29.134Z,87.10
2024-01-20T02:49:56.039Z,86.90
2024-01-20T02:52:22.998Z,86.70
2024-01-20T02:54:49.635Z,86.70
2024-01-20T02:57:17.547Z,86.70
2024-01-20T02:59:44.191Z,87.00
2024-01-20T03:02:13.671Z,87.20
2024-01-20T03:04:40.547Z,87.20
2024-01-20T03:07:07.173Z,87.40
2024-01-20T03:09:33.897Z,88.40
2024-01-20T03:12:00.824Z,88.50
2024-01-20T03:14:27.618Z,87.90
2024-01-20T03:16:54.373Z,87.30
2024-01-20T03:19:21.055Z,87.30
2024-01-20T03:21:47.780Z,87.30
2024-01-20T03:24:18.062Z,87.00
2024-01-20T03:26:50.810Z,86.90
2024-01-20T03:29:17.900Z,86.90
2024-01-20T03:31:44.878Z,86.60
2024-01-20T03:34:11.717Z,87.00
2024-01-20T03:36:38.755Z,87.10
2024-01-20T03:39:05.492Z,86.90
2024-01-20T03:41:32.525Z,87.00
2024-01-20T03:44:02.070Z,87.00
2024-01-20T03:46:28.879Z,87.40
2024-01-20T03:48:55.640Z,87.10
2024-01-20T03:51:27.732Z,87.50
2024-01-20T03:53:55.369Z,86.90
2024-01-20T03:56:22.135Z,87.30
2024-01-20T03:58:48.997Z,87.30
2024-01-20T04:01:15.872Z,87.10
2024-01-20T04:03:43.168Z,87.40
2024-01-20T04:06:10.057Z,87.60
2024-01-20T04:08:38.464Z,87.30
2024-01-20T04:11:06.589Z,87.10
2024-01-20T04:13:33.379Z,87.30
2024-01-20T04:16:00.505Z,87.00
2024-01-20T04:18:27.307Z,87.40
2024-01-20T04:20:54.210Z,87.60
2024-01-20T04:23:21.061Z,87.20
2024-01-20T04:25:48.249Z,87.00
2024-01-20T04:28:14.950Z,87.70
2024-01-20T04:30:41.898Z,87.10
2024-01-20T04:33:08.704Z,86.90
2024-01-20T04:35:35.588Z,86.80
2024-01-20T04:38:02.388Z,86.70
2024-01-20T04:40:29.149Z,87.00
2024-01-20T04:42:55.973Z,87.20
2024-01-20T04:45:22.849Z,87.70
2024-01-20T04:47:49.677Z,87.90
2024-01-20T04:50:16.402Z,87.60
2024-01-20T04:52:44.497Z,87.30
2024-01-20T04:55:11.224Z,87.60
2024-01-20T04:57:38.118Z,87.20
2024-01-20T05:00:05.883Z,86.90
2024-01-20T05:02:32.715Z,87.30
2024-01-20T05:04:59.423Z,87.20
2024-01-20T05:07:26.117Z,87.00
2024-01-20T05:09:52.928Z,87.10
2024-01-20T05:12:19.678Z,87.00
2024-01-20T05:14:46.540Z,86.50
2024-01-20T05:17:13.338Z,86.70
2024-01-20T05:19:40.501Z,86.60
2024-01-20T05:22:07.309Z,86.90
2024-01-20T05:24:34.336Z,86.60
2024-01-20T05:27:01.603Z,86.90
2024-01-20T05:29:28.463Z,87.00
2024-01-20T05:31:55.365Z,86.60
2024-01-20T05:34:22.219Z,87.10
2024-01-20T05:36:49.105Z,86.50
2024-01-20T05:39:16.264Z,86.70
2024-01-20T05:41:45.568Z,86.40
2024-01-20T05:44:12.524Z,86.30
2024-01-20T05:46:41.595Z,86.20
2024-01-20T05:49:08.785Z,86.60
2024-01-20T05:51:36.940Z,86.50
2024-01-20T05:54:04.416Z,86.00
2024-01-20T05:56:31.403Z,86.10
2024-01-20T05:58:58.192Z,86.40
2024-01-20T06:01:25.180Z,86.60
2024-01-20T06:03:52.156Z,86.40
2024-01-20T06:06:18.917Z,86.30
2024-01-20T06:08:45.602Z,86.30
2024-01-20T06:11:12.829Z,86.50
2024-01-20T06:13:39.633Z,86.20
2024-01-20T06:16:06.919Z,86.10
2024-01-20T06:18:34.167Z,86.40
2024-01-20T06:21:01.752Z,86.30
2024-01-20T06:23:31.106Z,86.10
2024-01-20T06:26:00.713Z,86.30
2024-01-20T06:28:27.395Z,86.20
2024-01-20T06:30:54.177Z,86.40
2024-01-20T06:33:21.981Z,86.30
2024-01-20T06:35:49.183Z,86.00
2024-01-20T06:38:16.233Z,86.10
2024-01-20T06:40:46.152Z,86.10
2024-01-20T06:43:15.308Z,85.90
2024-01-20T06:45:43.306Z,85.80
2024-01-20T06:48:11.170Z,85.70
2024-01-20T06:50:44.937Z,85.70
2024-01-20T06:53:13.043Z,85.60
2024-01-20T06:55:39.942Z,85.70
2024-01-20T06:58:06.813Z,86.10
2024-01-20T07:00:33.659Z,86.60
2024-01-20T07:03:01.711Z,86.70
2024-01-20T07:05:28.585Z,86.50
2024-01-20T07:07:55.244Z,86.20
2024-01-20T07:10:22.139Z,86.00
2024-01-20T07:12:48.841Z,85.90
2024-01-20T07:15:16.127Z,85.90
2024-01-20T07:17:42.910Z,85.80
2024-01-20T07:20:11.598Z,86.10
2024-01-20T07:22:38.575Z,85.90
2024-01-20T07:25:06.615Z,86.00
2024-01-20T07:27:33.307Z,85.80
2024-01-20T07:30:00.141Z,86.10
2024-01-20T07:32:26.983Z,86.10
2024-01-20T07:34:55.145Z,86.60
2024-01-20T07:37:22.124Z,86.70
2024-01-20T07:39:48.834Z,86.80
2024-01-20T07:42:16.089Z,86.70
2024-01-20T07:44:42.793Z,87.10
2024-01-20T07:47:09.682Z,87.10
2024-01-20T07:49:36.396Z,86.90
2024-01-20T07:52:03.235Z,86.90
2024-01-20T07:54:30.673Z,87.40
2024-01-20T07:56:57.432Z,87.50
2024-01-20T07:59:27.161Z,87.80
2024-01-20T08:01:53.799Z,87.70
2024-01-20T08:04:20.468Z,87.70
2024-01-20T08:06:47.436Z,87.70
2024-01-20T08:09:14.747Z,87.90
2024-01-20T08:11:41.672Z,87.90
2024-01-20T08:14:08.435Z,87.70
2024-01-20T08:16:35.450Z,87.70
2024-01-20T08:19:02.172Z,87.80
2024-01-20T08:21:29.166Z,87.80
2024-01-20T08:23:56.850Z,87.80
2024-01-20T08:26:23.738Z,87.80
2024-01-20T08:28:50.359Z,87.70
2024-01-20T08:31:17.782Z,87.90
2024-01-20T08:33:45.123Z,87.80
2024-01-20T08:36:11.985Z,87.40
2024-01-20T08:38:38.646Z,87.20
2024-01-20T08:41:09.427Z,87.00
2024-01-20T08:43:37.121Z,87.10
2024-01-20T08:46:03.905Z,86.70
2024-01-20T08:48:30.815Z,86.80
2024-01-20T08:50:58.067Z,87.10
2024-01-20T08:53:24.708Z,87.30
2024-01-20T08:55:51.454Z,87.30
2024-01-20T08:58:18.290Z,87.40
2024-01-20T09:00:45.297Z,86.70
2024-01-20T09:03:12.234Z,86.90
2024-01-20T09:05:39.739Z,87.10
2024-01-20T09:08:07.263Z,86.70
2024-01-20T09:10:34.406Z,86.50
2024-01-20T09:13:00.991Z,86.50
2024-01-20T09:15:27.913Z,85.80
2024-01-20T09:17:55.127Z,86.80
2024-01-20T09:20:22.061Z,87.40
2024-01-20T09:22:48.744Z,86.50
2024-01-20T09:25:15.482Z,85.50
2024-01-20T09:27:44.182Z,86.70
2024-01-20T09:30:11.254Z,86.20
2024-01-20T09:32:38.061Z,86.40
2024-01-20T09:35:04.810Z,87.00
2024-01-20T09:37:31.660Z,86.80
2024-01-20T09:39:58.474Z,86.00
2024-01-20T09:42:25.296Z,86.80
2024-01-20T09:44:52.493Z,86.70
2024-01-20T09:47:19.372Z,85.80
2024-01-20T09:49:46.223Z,86.00
2024-01-20T09:52:16.561Z,87.20
2024-01-20T09:54:49.632Z,87.10
2024-01-20T09:57:17.139Z,85.70
2024-01-20T09:59:43.998Z,85.00
2024-01-20T10:02:11.925Z,84.40
2024-01-20T10:04:43.279Z,85.50
2024-01-20T10:07:10.003Z,86.70
2024-01-20T10:09:38.297Z,86.80
2024-01-20T10:12:05.203Z,86.80
2024-01-20T10:14:31.951Z,85.90
2024-01-20T10:16:58.740Z,86.10
2024-01-20T10:19:25.498Z,85.20
2024-01-20T10:21:52.145Z,83.60
2024-01-20T10:24:22.525Z,86.70
2024-01-20T10:26:50.189Z,87.10
2024-01-20T10:29:17.427Z,86.60
2024-01-20T10:31:44.266Z,85.10
2024-01-20T10:34:11.221Z,85.00
2024-01-20T10:36:40.482Z,86.10
2024-01-20T10:39:08.231Z,86.40
2024-01-20T10:41:36.729Z,86.60
2024-01-20T10:44:04.255Z,84.70
2024-01-20T10:46:32.498Z,83.80
2024-01-20T10:49:00.668Z,85.80
2024-01-20T10:51:31.090Z,84.40
2024-01-20T10:54:01.790Z,83.70
2024-01-20T10:56:28.925Z,80.00
2024-01-20T10:58:59.373Z,80.90
2024-01-20T11:01:26.125Z,79.90
2024-01-20T11:03:52.923Z,78.30
2024-01-20T11:06:24.374Z,77.00
2024-01-20T11:08:52.281Z,76.30
2024-01-20T11:11:20.300Z,74.90
2024-01-20T11:13:49.882Z,76.90
2024-01-20T11:16:21.048Z,74.10
2024-01-20T11:18:48.108Z,74.50
2024-01-20T11:21:17.388Z,73.80
2024-01-20T11:23:58.199Z,74.60
2024-01-20T11:26:31.710Z,70.40
2024-01-20T11:28:59.368Z,71.50
2024-01-20T11:31:27.610Z,71.60
2024-01-20T11:33:54.408Z,71.70
2024-01-20T11:36:21.199Z,72.00
2024-01-20T11:38:48.259Z,72.10
2024-01-20T11:41:17.590Z,72.20
2024-01-20T11:43:47.577Z,71.90
2024-01-20T11:46:15.414Z,69.10
2024-01-20T11:48:43.612Z,67.70
2024-01-20T11:51:12.304Z,66.20
2024-01-20T11:53:41.893Z,71.80
2024-01-20T11:56:08.568Z,66.70
2024-01-20T11:58:35.218Z,66.90
2024-01-20T12:01:04.199Z,66.10
2024-01-20T12:03:31.034Z,66.50
2024-01-20T12:06:04.068Z,68.40
2024-01-20T12:08:30.940Z,68.00
2024-01-20T12:10:57.632Z,67.60
2024-01-20T12:13:25.709Z,68.50
2024-01-20T12:15:52.426Z,67.80
2024-01-20T12:18:19.552Z,66.30
2024-01-20T12:20:46.461Z,66.30
2024-01-20T12:23:20.249Z,67.40
2024-01-20T12:25:56.040Z,66.30
2024-01-20T12:28:23.058Z,65.80
2024-01-20T12:30:50.304Z,65.90
2024-01-20T12:33:17.247Z,66.40
2024-01-20T12:35:44.029Z,66.70
2024-01-20T12:38:10.663Z,65.40
2024-01-20T12:40:38.729Z,65.00
2024-01-20T12:43:05.513Z,66.50
2024-01-20T12:45:32.334Z,65.40
2024-01-20T12:47:59.506Z,66.20
2024-01-20T12:50:26.353Z,65.60
2024-01-20T12:52:53.049Z,65.20
2024-01-20T12:55:19.838Z,63.10
2024-01-20T12:57:46.530Z,62.10
2024-01-20T13:00:13.600Z,68.30
2024-01-20T13:02:40.525Z,65.20
2024-01-20T13:05:09.886Z,64.00
2024-01-20T13:07:36.551Z,64.30
2024-01-20T13:10:03.760Z,65.80
2024-01-20T13:12:30.460Z,66.00
2024-01-20T13:14:57.495Z,67.00
2024-01-20T13:17:24.157Z,65.60
2024-01-20T13:19:50.953Z,68.60
2024-01-20T13:22:17.855Z,65.60
2024-01-20T13:24:44.545Z,67.00
2024-01-20T13:27:11.358Z,64.50
2024-01-20T13:29:38.260Z,65.30
2024-01-20T13:32:05.180Z,65.30
2024-01-20T13:34:34.622Z,67.00
2024-01-20T13:37:01.491Z,66.00
2024-01-20T13:39:28.098Z,64.70
2024-01-20T13:41:54.793Z,64.40
2024-01-20T13:44:21.509Z,65.40
2024-01-20T13:46:48.172Z,66.10
2024-01-20T13:49:14.980Z,63.80
2024-01-20T13:51:41.778Z,64.90
2024-01-20T13:54:08.805Z,65.10
2024-01-20T13:56:35.606Z,65.20
2024-01-20T13:59:03.722Z,65.80
2024-01-20T14:01:30.584Z,65.70
2024-01-20T14:03:57.617Z,66.40
2024-01-20T14:06:25.777Z,66.30
2024-01-20T14:08:53.266Z,67.70
2024-01-20T14:11:20.186Z,67.20
2024-01-20T14:13:46.981Z,66.50
2024-01-20T14:16:13.800Z,67.10
2024-01-20T14:18:40.722Z,67.60
2024-01-20T14:21:07.583Z,67.90
2024-01-20T14:23:34.175Z,68.30
2024-01-20T14:26:01.782Z,68.00
2024-01-20T14:28:28.842Z,66.80
2024-01-20T14:30:55.510Z,69.70
2024-01-20T14:33:22.523Z,69.10
2024-01-20T14:35:49.290Z,67.90
2024-01-20T14:38:16.752Z,68.50
2024-01-20T14:40:43.371Z,69.60
2024-01-20T14:43:10.291Z,68.60
2024-01-20T14:45:38.511Z,69.60
2024-01-20T14:48:05.652Z,72.10
2024-01-20T14:50:33.394Z,69.80
2024-01-20T14:53:00.558Z,70.10
2024-01-20T14:55:29.868Z,70.70
2024-01-20T14:57:58.472Z,70.50
2024-01-20T15:00:26.361Z,69.90
2024-01-20T15:02:53.116Z,69.80
2024-01-20T15:05:19.885Z,71.30
2024-01-20T15:07:46.465Z,71.20
2024-01-20T15:10:13.099Z,70.90
2024-01-20T15:12:39.857Z,71.90
2024-01-20T15:15:06.881Z,71.80
2024-01-20T15:17:33.584Z,72.80
2024-01-20T15:20:00.433Z,72.30
2024-01-20T15:22:27.189Z,72.60
2024-01-20T15:24:53.974Z,73.20
2024-01-20T15:27:20.684Z,73.50
2024-01-20T15:29:47.323Z,74.40
2024-01-20T15:32:14.287Z,74.70
2024-01-20T15:34:41.307Z,74.90
2024-01-20T15:37:08.035Z,75.50
2024-01-20T15:39:34.980Z,75.50
2024-01-20T15:42:01.606Z,76.00
2024-01-20T15:44:28.872Z,76.30
2024-01-20T15:46:55.498Z,76.40
2024-01-20T15:49:22.129Z,76.70
2024-01-20T15:51:50.764Z,77.10
2024-01-20T15:54:18.078Z,77.40
2024-01-20T15:56:44.787Z,77.90
2024-01-20T15:59:12.809Z,78.40
2024-01-20T16:01:39.496Z,78.70
2024-01-20T16:04:06.287Z,78.90
2024-01-20T16:06:33.256Z,79.20
2024-01-20T16:09:00.361Z,79.50
2024-01-20T16:11:27.460Z,79.60
2024-01-20T16:13:54.128Z,79.70
2024-01-20T16:16:21.210Z,80.10
2024-01-20T16:18:48.154Z,80.40
2024-01-20T16:21:24.966Z,80.70
2024-01-20T16:23:52.097Z,81.10
2024-01-20T16:26:19.500Z,81.40
2024-01-20T16:28:46.135Z,81.90
2024-01-20T16:31:15.302Z,81.90
2024-01-20T16:33:42.367Z,82.10
2024-01-20T16:36:11.863Z,82.40
2024-01-20T16:38:38.958Z,82.90
2024-01-20T16:41:05.571Z,83.20
2024-01-20T16:43:32.496Z,83.30
2024-01-20T16:45:59.240Z,83.60
2024-01-20T16:48:27.027Z,83.90
2024-01-20T16:50:53.788Z,84.00
2024-01-20T16:53:21.947Z,84.10
2024-01-20T16:55:48.828Z,84.00
2024-01-20T16:58:16.289Z,84.20
2024-01-20T17:00:43.107Z,84.30
2024-01-20T17:03:10.079Z,84.30
2024-01-20T17:05:36.994Z,84.30
2024-01-20T17:08:03.973Z,84.40
2024-01-20T17:10:33.212Z,84.50
2024-01-20T17:13:00.147Z,84.50
2024-01-20T17:15:26.824Z,84.60
2024-01-20T17:17:54.092Z,84.60
2024-01-20T17:20:21.079Z,84.60
2024-01-20T17:22:48.888Z,84.70
2024-01-20T17:25:15.779Z,84.90
2024-01-20T17:27:42.538Z,85.00
2024-01-20T17:30:09.380Z,85.20
2024-01-20T17:32:40.470Z,85.30
2024-01-20T17:35:09.181Z,85.40
2024-01-20T17:37:36.032Z,85.50
2024-01-20T17:40:04.557Z,85.60
2024-01-20T17:42:31.453Z,85.60
2024-01-20T17:45:00.233Z,85.80
2024-01-20T17:47:29.295Z,85.80
2024-01-20T17:49:56.301Z,86.00
2024-01-20T17:52:26.049Z,85.90
2024-01-20T17:54:52.931Z,86.00
2024-01-20T17:57:20.378Z,85.90
2024-01-20T17:59:47.123Z,86.00
2024-01-20T18:02:15.825Z,85.90
2024-01-20T18:04:44.581Z,86.00
2024-01-20T18:07:11.714Z,86.10
2024-01-20T18:09:39.116Z,86.20
2024-01-20T18:12:06.143Z,86.30
2024-01-20T18:14:36.037Z,86.50
2024-01-20T18:17:03.230Z,86.60
2024-01-20T18:19:30.537Z,86.50
2024-01-20T18:21:57.926Z,86.60
2024-01-20T18:24:26.666Z,86.50
2024-01-20T18:26:53.896Z,86.60
2024-01-20T18:29:21.165Z,86.70
2024-01-20T18:31:47.751Z,86.50
2024-01-20T18:34:14.451Z,86.50
2024-01-20T18:36:41.158Z,86.50
2024-01-20T18:39:08.538Z,86.60
2024-01-20T18:41:35.221Z,86.50
2024-01-20T18:44:01.831Z,86.50
2024-01-20T18:46:28.471Z,86.50
2024-01-20T18:48:55.242Z,86.50
2024-01-20T18:51:22.041Z,86.60
2024-01-20T18:53:48.926Z,86.90
2024-01-20T18:56:15.856Z,86.60
2024-01-20T18:58:42.460Z,86.60
2024-01-20T19:01:10.221Z,86.40
2024-01-20T19:03:37.453Z,86.60
2024-01-20T19:06:04.797Z,86.90
2024-01-20T19:08:31.391Z,86.80
2024-01-20T19:10:59.458Z,86.70
2024-01-20T19:13:26.108Z,86.70
2024-01-20T19:15:53.024Z,86.70
2024-01-20T19:18:21.144Z,86.60
2024-01-20T19:20:48.146Z,86.50
2024-01-20T19:23:15.965Z,86.40
2024-01-20T19:25:42.659Z,86.70
2024-01-20T19:28:09.337Z,86.70
2024-01-20T19:30:35.991Z,86.60
2024-01-20T19:33:05.558Z,86.60
2024-01-20T19:35:33.139Z,86.60
2024-01-20T19:38:02.669Z,86.50
2024-01-20T19:40:29.380Z,86.50
2024-01-20T19:42:56.084Z,86.40
2024-01-20T19:45:22.928Z,86.40
2024-01-20T19:47:49.741Z,86.40
2024-01-20T19:50:16.549Z,86.30
2024-01-20T19:52:43.195Z,86.30
2024-01-20T19:55:09.942Z,86.40
2024-01-20T19:57:36.769Z,86.40
2024-01-20T20:00:05.665Z,86.40
2024-01-20T20:02:34.074Z,86.30
2024-01-20T20:05:00.783Z,86.40
2024-01-20T20:07:27.456Z,86.20
2024-01-20T20:09:54.142Z,86.20
2024-01-20T20:12:23.069Z,86.20
2024-01-20T20:14:49.733Z,86.10
2024-01-20T20:17:16.390Z,86.10
2024-01-20T20:19:43.137Z,86.40
2024-01-20T20:22:10.297Z,86.30
2024-01-20T20:24:38.264Z,86.40
2024-01-20T20:27:05.093Z,86.30
2024-01-20T20:29:33.329Z,86.40
2024-01-20T20:31:59.954Z,86.70
2024-01-20T20:34:26.776Z,86.60
2024-01-20T20:36:54.822Z,86.40
2024-01-20T20:39:21.850Z,86.50
2024-01-20T20:41:50.168Z,86.60
2024-01-20T20:44:17.803Z,86.70
2024-01-20T20:46:44.472Z,86.80
2024-01-20T20:49:11.253Z,86.70
2024-01-20T20:51:38.303Z,86.70
2024-01-20T20:54:04.995Z,86.80
2024-01-20T20:56:32.071Z,86.80
2024-01-20T20:58:58.727Z,86.80
2024-01-20T21:01:25.339Z,87.00
2024-01-20T21:03:52.325Z,86.90
2024-01-20T21:06:19.213Z,86.80
2024-01-20T21:08:45.889Z,86.80
2024-01-20T21:11:12.720Z,86.80
2024-01-20T21:13:39.450Z,86.70
2024-01-20T21:16:06.313Z,86.50
2024-01-20T21:18:33.164Z,86.50
2024-01-20T21:21:00.184Z,86.80
2024-01-20T21:23:26.937Z,86.70
2024-01-20T21:25:55.298Z,86.60
2024-01-20T21:28:22.344Z,86.50
2024-01-20T21:30:49.168Z,86.40
2024-01-20T21:33:16.330Z,86.30
2024-01-20T21:35:44.543Z,86.30
2024-01-20T21:38:11.213Z,86.40
2024-01-20T21:40:38.092Z,86.30
2024-01-20T21:43:04.815Z,86.20
2024-01-20T21:45:31.552Z,86.30
2024-01-20T21:47:58.526Z,86.30
2024-01-20T21:50:25.220Z,86.30
2024-01-20T21:52:52.243Z,86.40
2024-01-20T21:55:18.901Z,86.30
2024-01-20T21:57:49.261Z,86.30
2024-01-20T22:00:16.174Z,86.40
2024-01-20T22:02:43.554Z,86.40
2024-01-20T22:05:11.593Z,86.20
2024-01-20T22:07:38.547Z,86.00
2024-01-20T22:10:06.103Z,85.90
2024-01-20T22:12:33.067Z,86.00
2024-01-20T22:14:59.840Z,85.90
2024-01-20T22:17:26.575Z,86.20
2024-01-20T22:19:53.501Z,86.10
2024-01-20T22:22:20.931Z,86.20
2024-01-20T22:24:47.852Z,86.10
2024-01-20T22:27:16.728Z,86.10
2024-01-20T22:29:43.385Z,86.30
2024-01-20T22:32:10.156Z,86.50
2024-01-20T22:34:37.097Z,86.40
2024-01-20T22:37:03.836Z,86.60
2024-01-20T22:39:30.642Z,86.50
2024-01-20T22:41:57.493Z,86.60
2024-01-20T22:44:24.156Z,86.50
2024-01-20T22:46:51.121Z,86.60
2024-01-20T22:49:18.096Z,86.40
2024-01-20T22:51:45.055Z,86.40
2024-01-20T22:54:13.586Z,86.40
2024-01-20T22:56:40.503Z,86.40
2024-01-20T22:59:07.237Z,86.20
2024-01-20T23:01:33.964Z,86.20
2024-01-20T23:04:00.784Z,86.20
2024-01-20T23:06:27.588Z,86.10
2024-01-20T23:08:54.213Z,86.20
2024-01-20T23:11:22.051Z,86.10
2024-01-20T23:13:48.733Z,86.10
2024-01-20T23:16:15.414Z,86.00
2024-01-20T23:18:42.216Z,85.90
2024-01-20T23:21:09.633Z,85.70
2024-01-20T23:23:36.364Z,85.80
2024-01-20T23:26:03.520Z,85.80
2024-01-20T23:28:30.358Z,86.00
2024-01-20T23:30:57.190Z,86.10
2024-01-20T23:33:24.856Z,86.20
2024-01-20T23:35:51.704Z,86.10
2024-01-20T23:38:18.285Z,86.40
2024-01-20T23:40:44.977Z,86.20
2024-01-20T23:43:11.591Z,86.10
2024-01-20T23:45:38.873Z,86.00
2024-01-20T23:48:07.243Z,86.10
2024-01-20T23:50:34.221Z,86.20
2024-01-20T23:53:01.223Z,86.20
2024-01-20T23:55:27.824Z,86.10
2024-01-20T23:57:54.680Z,85.90
